El Tigre, Venezuela
Current Conditions -  °F | °C
As of 1:00 PM on Saturday 25 Oct 2014 (Local Time) from SVBC Reporting Station
Clear Clear  
Wind Chill: 91°   Ceiling: Unl
Heat Index: 111°   Visibility: 6mi
Dew Point: 81°   Wind: 0mph
Humidity: 71%   Direction: NA
Pressure: 29.83"   Gusts: NA
Location:  8.89°N, 64.26°W
Report Text: SVBC 251700Z 00000KT 9999 SCT013CB/SE 33/27 Q1010
Loading
Personal Weather Stations






























Interactive Weather Map
Tropical Storm Tracking
New forecast layout! Learn more

10-Day Weather Forecast

Advertisements
Track Severe Weather on mobile